sensor_id;sensor_type;location;lat;lon;timestamp;P1;durP1;ratioP1;P2;durP2;ratioP2
56519;SDS011;42420;53.586;10.052;2022-12-07T00:04:41;14.50;;;8.85;;
56519;SDS011;42420;53.586;10.052;2022-12-07T00:10:04;16.88;;;8.77;;
56519;SDS011;42420;53.586;10.052;2022-12-07T00:16:10;16.33;;;8.65;;
56519;SDS011;42420;53.586;10.052;2022-12-07T00:48:38;14.27;;;8.40;;
56519;SDS011;42420;53.586;10.052;2022-12-07T00:59:10;12.65;;;8.15;;
56519;SDS011;42420;53.586;10.052;2022-12-07T01:04:10;13.77;;;8.15;;
56519;SDS011;42420;53.586;10.052;2022-12-07T03:09:42;6.55;;;2.50;;
56519;SDS011;42420;53.586;10.052;2022-12-07T03:30:20;6.45;;;2.17;;
56519;SDS011;42420;53.586;10.052;2022-12-07T04:11:43;4.10;;;1.20;;
56519;SDS011;42420;53.586;10.052;2022-12-07T04:17:26;6.38;;;1.30;;
56519;SDS011;42420;53.586;10.052;2022-12-07T04:22:25;4.57;;;1.50;;
56519;SDS011;42420;53.586;10.052;2022-12-07T04:28:14;5.35;;;1.13;;
56519;SDS011;42420;53.586;10.052;2022-12-07T04:38:39;4.65;;;1.60;;
56519;SDS011;42420;53.586;10.052;2022-12-07T04:50:10;6.68;;;1.80;;
56519;SDS011;42420;53.586;10.052;2022-12-07T04:55:14;7.13;;;1.80;;
56519;SDS011;42420;53.586;10.052;2022-12-07T05:00:25;6.67;;;2.20;;
56519;SDS011;42420;53.586;10.052;2022-12-07T05:05:22;6.60;;;1.88;;
56519;SDS011;42420;53.586;10.052;2022-12-07T05:10:19;6.32;;;2.13;;
56519;SDS011;42420;53.586;10.052;2022-12-07T05:15:40;5.75;;;2.20;;
56519;SDS011;42420;53.586;10.052;2022-12-07T05:20:47;6.03;;;2.10;;
56519;SDS011;42420;53.586;10.052;2022-12-07T05:26:01;5.57;;;2.15;;
56519;SDS011;42420;53.586;10.052;2022-12-07T05:30:58;5.07;;;2.10;;
56519;SDS011;42420;53.586;10.052;2022-12-07T05:35:55;9.77;;;2.40;;
56519;SDS011;42420;53.586;10.052;2022-12-07T05:47:09;5.68;;;2.13;;
56519;SDS011;42420;53.586;10.052;2022-12-07T05:52:09;6.30;;;2.22;;
56519;SDS011;42420;53.586;10.052;2022-12-07T07:07:57;4.72;;;1.35;;
56519;SDS011;42420;53.586;10.052;2022-12-07T07:13:13;4.72;;;1.70;;
56519;SDS011;42420;53.586;10.052;2022-12-07T07:23:07;7.50;;;1.60;;
56519;SDS011;42420;53.586;10.052;2022-12-07T07:28:04;5.60;;;1.75;;
56519;SDS011;42420;53.586;10.052;2022-12-07T07:37:58;6.50;;;1.30;;
56519;SDS011;42420;53.586;10.052;2022-12-07T07:42:55;8.25;;;1.63;;
56519;SDS011;42420;53.586;10.052;2022-12-07T07:47:53;4.80;;;1.40;;
56519;SDS011;42420;53.586;10.052;2022-12-07T07:52:50;9.43;;;1.83;;
56519;SDS011;42420;53.586;10.052;2022-12-07T08:02:50;12.50;;;1.98;;
56519;SDS011;42420;53.586;10.052;2022-12-07T08:07:46;5.60;;;1.92;;
56519;SDS011;42420;53.586;10.052;2022-12-07T08:12:43;8.82;;;1.60;;
56519;SDS011;42420;53.586;10.052;2022-12-07T08:17:58;11.75;;;2.47;;
56519;SDS011;42420;53.586;10.052;2022-12-07T08:22:54;4.93;;;1.02;;
56519;SDS011;42420;53.586;10.052;2022-12-07T08:27:51;6.65;;;1.65;;
56519;SDS011;42420;53.586;10.052;2022-12-07T08:32:48;10.45;;;1.60;;
56519;SDS011;42420;53.586;10.052;2022-12-07T08:42:47;7.47;;;1.45;;
56519;SDS011;42420;53.586;10.052;2022-12-07T08:47:46;8.05;;;1.40;;
56519;SDS011;42420;53.586;10.052;2022-12-07T08:52:57;8.57;;;1.27;;
56519;SDS011;42420;53.586;10.052;2022-12-07T08:57:55;7.10;;;1.13;;
56519;SDS011;42420;53.586;10.052;2022-12-07T09:02:53;8.48;;;1.45;;
56519;SDS011;42420;53.586;10.052;2022-12-07T09:07:51;9.88;;;2.33;;
56519;SDS011;42420;53.586;10.052;2022-12-07T09:12:52;9.93;;;2.20;;
56519;SDS011;42420;53.586;10.052;2022-12-07T09:17:48;6.20;;;1.85;;
56519;SDS011;42420;53.586;10.052;2022-12-07T09:22:44;6.80;;;1.50;;
56519;SDS011;42420;53.586;10.052;2022-12-07T09:27:41;8.60;;;1.30;;
56519;SDS011;42420;53.586;10.052;2022-12-07T09:32:38;8.13;;;1.58;;
56519;SDS011;42420;53.586;10.052;2022-12-07T09:37:34;6.47;;;1.48;;
56519;SDS011;42420;53.586;10.052;2022-12-07T09:42:41;8.40;;;1.20;;
56519;SDS011;42420;53.586;10.052;2022-12-07T09:48:43;5.80;;;1.30;;
56519;SDS011;42420;53.586;10.052;2022-12-07T09:53:44;6.15;;;1.20;;
56519;SDS011;42420;53.586;10.052;2022-12-07T09:58:41;12.85;;;2.42;;
56519;SDS011;42420;53.586;10.052;2022-12-07T10:03:40;12.07;;;1.50;;
56519;SDS011;42420;53.586;10.052;2022-12-07T10:08:39;11.55;;;1.90;;
56519;SDS011;42420;53.586;10.052;2022-12-07T10:13:48;7.53;;;1.20;;
56519;SDS011;42420;53.586;10.052;2022-12-07T10:18:53;7.97;;;1.88;;
56519;SDS011;42420;53.586;10.052;2022-12-07T10:29:00;9.55;;;1.55;;
56519;SDS011;42420;53.586;10.052;2022-12-07T10:34:00;8.75;;;1.50;;
56519;SDS011;42420;53.586;10.052;2022-12-07T10:44:30;4.75;;;1.35;;
56519;SDS011;42420;53.586;10.052;2022-12-07T11:00:00;12.40;;;1.95;;
56519;SDS011;42420;53.586;10.052;2022-12-07T11:43:27;8.98;;;1.20;;
56519;SDS011;42420;53.586;10.052;2022-12-07T12:09:30;8.52;;;1.60;;
56519;SDS011;42420;53.586;10.052;2022-12-07T12:24:58;7.97;;;2.55;;
56519;SDS011;42420;53.586;10.052;2022-12-07T12:45:30;13.30;;;1.45;;
56519;SDS011;42420;53.586;10.052;2022-12-07T12:50:37;6.82;;;1.10;;
56519;SDS011;42420;53.586;10.052;2022-12-07T13:23:31;9.35;;;1.30;;
56519;SDS011;42420;53.586;10.052;2022-12-07T13:28:37;6.10;;;1.00;;
56519;SDS011;42420;53.586;10.052;2022-12-07T13:33:38;6.15;;;1.10;;
56519;SDS011;42420;53.586;10.052;2022-12-07T13:38:35;9.68;;;2.55;;
56519;SDS011;42420;53.586;10.052;2022-12-07T13:43:45;9.70;;;1.45;;
56519;SDS011;42420;53.586;10.052;2022-12-07T13:49:15;10.23;;;1.98;;
56519;SDS011;42420;53.586;10.052;2022-12-07T13:54:17;5.78;;;1.20;;
56519;SDS011;42420;53.586;10.052;2022-12-07T13:59:19;6.43;;;0.98;;
56519;SDS011;42420;53.586;10.052;2022-12-07T14:04:32;5.82;;;1.00;;
56519;SDS011;42420;53.586;10.052;2022-12-07T14:09:32;10.00;;;1.27;;
56519;SDS011;42420;53.586;10.052;2022-12-07T14:14:29;8.45;;;1.45;;
56519;SDS011;42420;53.586;10.052;2022-12-07T14:24:44;8.48;;;1.15;;
56519;SDS011;42420;53.586;10.052;2022-12-07T14:34:37;12.73;;;2.65;;
56519;SDS011;42420;53.586;10.052;2022-12-07T14:44:31;6.25;;;1.15;;
56519;SDS011;42420;53.586;10.052;2022-12-07T14:49:31;6.45;;;1.15;;
56519;SDS011;42420;53.586;10.052;2022-12-07T14:59:36;8.27;;;1.42;;
56519;SDS011;42420;53.586;10.052;2022-12-07T15:04:44;8.98;;;1.30;;
56519;SDS011;42420;53.586;10.052;2022-12-07T15:21:21;19.55;;;3.17;;
56519;SDS011;42420;53.586;10.052;2022-12-07T15:26:22;10.32;;;1.40;;
56519;SDS011;42420;53.586;10.052;2022-12-07T15:31:18;7.70;;;1.27;;
56519;SDS011;42420;53.586;10.052;2022-12-07T15:36:35;8.35;;;1.77;;
56519;SDS011;42420;53.586;10.052;2022-12-07T15:41:31;4.30;;;1.02;;
56519;SDS011;42420;53.586;10.052;2022-12-07T15:46:35;6.57;;;1.55;;
56519;SDS011;42420;53.586;10.052;2022-12-07T16:03:02;5.65;;;1.40;;
56519;SDS011;42420;53.586;10.052;2022-12-07T16:07:59;4.50;;;1.63;;
56519;SDS011;42420;53.586;10.052;2022-12-07T16:12:56;4.13;;;1.02;;
56519;SDS011;42420;53.586;10.052;2022-12-07T16:17:52;7.82;;;1.30;;
56519;SDS011;42420;53.586;10.052;2022-12-07T16:28:10;5.47;;;1.40;;
56519;SDS011;42420;53.586;10.052;2022-12-07T16:33:06;5.70;;;1.20;;
56519;SDS011;42420;53.586;10.052;2022-12-07T16:38:05;8.20;;;2.17;;
56519;SDS011;42420;53.586;10.052;2022-12-07T16:43:01;8.63;;;2.35;;
56519;SDS011;42420;53.586;10.052;2022-12-07T16:59:28;6.85;;;1.50;;
56519;SDS011;42420;53.586;10.052;2022-12-07T17:04:25;6.43;;;1.60;;
56519;SDS011;42420;53.586;10.052;2022-12-07T17:09:22;6.78;;;1.33;;
56519;SDS011;42420;53.586;10.052;2022-12-07T17:14:18;9.43;;;2.88;;
56519;SDS011;42420;53.586;10.052;2022-12-07T17:19:33;9.50;;;1.80;;
56519;SDS011;42420;53.586;10.052;2022-12-07T17:24:31;12.05;;;2.20;;
56519;SDS011;42420;53.586;10.052;2022-12-07T17:34:40;7.93;;;2.40;;
56519;SDS011;42420;53.586;10.052;2022-12-07T17:39:40;7.28;;;1.65;;
56519;SDS011;42420;53.586;10.052;2022-12-07T17:44:39;7.80;;;2.22;;
56519;SDS011;42420;53.586;10.052;2022-12-07T17:49:35;11.25;;;3.08;;
56519;SDS011;42420;53.586;10.052;2022-12-07T17:54:32;8.52;;;1.95;;
56519;SDS011;42420;53.586;10.052;2022-12-07T17:59:29;12.27;;;2.30;;
56519;SDS011;42420;53.586;10.052;2022-12-07T18:04:25;8.10;;;2.28;;
56519;SDS011;42420;53.586;10.052;2022-12-07T18:09:23;8.23;;;2.35;;
56519;SDS011;42420;53.586;10.052;2022-12-07T18:14:20;9.45;;;3.35;;
56519;SDS011;42420;53.586;10.052;2022-12-07T18:19:16;10.40;;;2.60;;
56519;SDS011;42420;53.586;10.052;2022-12-07T18:24:14;9.13;;;3.03;;
56519;SDS011;42420;53.586;10.052;2022-12-07T18:29:16;7.80;;;2.10;;
56519;SDS011;42420;53.586;10.052;2022-12-07T18:34:13;7.28;;;2.42;;
56519;SDS011;42420;53.586;10.052;2022-12-07T18:39:11;9.82;;;2.58;;
56519;SDS011;42420;53.586;10.052;2022-12-07T18:44:08;12.95;;;2.88;;
56519;SDS011;42420;53.586;10.052;2022-12-07T18:49:05;8.27;;;3.13;;
56519;SDS011;42420;53.586;10.052;2022-12-07T18:54:01;8.38;;;2.95;;
56519;SDS011;42420;53.586;10.052;2022-12-07T18:59:00;9.43;;;2.78;;
56519;SDS011;42420;53.586;10.052;2022-12-07T19:04:16;13.30;;;3.38;;
56519;SDS011;42420;53.586;10.052;2022-12-07T19:09:13;12.38;;;5.03;;
56519;SDS011;42420;53.586;10.052;2022-12-07T19:14:09;16.15;;;4.28;;
56519;SDS011;42420;53.586;10.052;2022-12-07T19:19:06;11.18;;;3.60;;
56519;SDS011;42420;53.586;10.052;2022-12-07T19:24:03;28.10;;;12.65;;
56519;SDS011;42420;53.586;10.052;2022-12-07T19:29:01;10.18;;;3.75;;
56519;SDS011;42420;53.586;10.052;2022-12-07T19:33:57;16.70;;;3.75;;
56519;SDS011;42420;53.586;10.052;2022-12-07T19:38:54;12.50;;;3.10;;
56519;SDS011;42420;53.586;10.052;2022-12-07T19:43:50;7.75;;;3.00;;
56519;SDS011;42420;53.586;10.052;2022-12-07T19:48:47;7.80;;;2.72;;
56519;SDS011;42420;53.586;10.052;2022-12-07T19:59:24;6.78;;;2.85;;
56519;SDS011;42420;53.586;10.052;2022-12-07T20:04:23;9.23;;;3.35;;
56519;SDS011;42420;53.586;10.052;2022-12-07T20:09:21;7.22;;;2.38;;
56519;SDS011;42420;53.586;10.052;2022-12-07T20:14:18;10.07;;;2.70;;
56519;SDS011;42420;53.586;10.052;2022-12-07T20:19:15;12.40;;;2.88;;
56519;SDS011;42420;53.586;10.052;2022-12-07T20:24:13;11.00;;;2.92;;
56519;SDS011;42420;53.586;10.052;2022-12-07T20:34:22;8.25;;;2.63;;
56519;SDS011;42420;53.586;10.052;2022-12-07T20:39:31;8.88;;;3.20;;
56519;SDS011;42420;53.586;10.052;2022-12-07T20:44:31;8.98;;;2.83;;
56519;SDS011;42420;53.586;10.052;2022-12-07T20:49:28;8.68;;;3.00;;
56519;SDS011;42420;53.586;10.052;2022-12-07T20:59:22;9.15;;;2.80;;
56519;SDS011;42420;53.586;10.052;2022-12-07T21:04:24;10.25;;;3.10;;
56519;SDS011;42420;53.586;10.052;2022-12-07T21:14:26;9.05;;;3.13;;
56519;SDS011;42420;53.586;10.052;2022-12-07T21:19:23;7.82;;;2.58;;
56519;SDS011;42420;53.586;10.052;2022-12-07T21:29:16;8.38;;;2.80;;
56519;SDS011;42420;53.586;10.052;2022-12-07T21:34:31;9.27;;;2.20;;
56519;SDS011;42420;53.586;10.052;2022-12-07T21:39:42;6.80;;;2.42;;
56519;SDS011;42420;53.586;10.052;2022-12-07T21:44:41;8.95;;;2.97;;
56519;SDS011;42420;53.586;10.052;2022-12-07T21:54:39;7.65;;;2.50;;
56519;SDS011;42420;53.586;10.052;2022-12-07T21:59:50;10.68;;;3.22;;
56519;SDS011;42420;53.586;10.052;2022-12-07T22:05:35;8.73;;;3.33;;
56519;SDS011;42420;53.586;10.052;2022-12-07T22:10:53;7.90;;;3.80;;
56519;SDS011;42420;53.586;10.052;2022-12-07T22:16:19;11.05;;;3.95;;
56519;SDS011;42420;53.586;10.052;2022-12-07T22:21:21;8.15;;;4.20;;
56519;SDS011;42420;53.586;10.052;2022-12-07T22:26:36;9.80;;;5.15;;
56519;SDS011;42420;53.586;10.052;2022-12-07T22:31:35;9.20;;;4.78;;
56519;SDS011;42420;53.586;10.052;2022-12-07T22:36:36;10.73;;;4.85;;
56519;SDS011;42420;53.586;10.052;2022-12-07T22:41:36;8.60;;;4.90;;
56519;SDS011;42420;53.586;10.052;2022-12-07T22:46:35;10.25;;;4.93;;
56519;SDS011;42420;53.586;10.052;2022-12-07T22:51:39;10.43;;;5.35;;
56519;SDS011;42420;53.586;10.052;2022-12-07T22:56:41;11.52;;;6.15;;
56519;SDS011;42420;53.586;10.052;2022-12-07T23:01:40;10.30;;;5.28;;
56519;SDS011;42420;53.586;10.052;2022-12-07T23:06:39;9.85;;;5.88;;
56519;SDS011;42420;53.586;10.052;2022-12-07T23:11:39;10.02;;;6.55;;
56519;SDS011;42420;53.586;10.052;2022-12-07T23:16:56;10.02;;;6.47;;
56519;SDS011;42420;53.586;10.052;2022-12-07T23:21:54;12.43;;;6.80;;
56519;SDS011;42420;53.586;10.052;2022-12-07T23:27:19;10.20;;;6.00;;
56519;SDS011;42420;53.586;10.052;2022-12-07T23:32:16;10.05;;;6.70;;
56519;SDS011;42420;53.586;10.052;2022-12-07T23:37:13;12.13;;;6.88;;
56519;SDS011;42420;53.586;10.052;2022-12-07T23:42:10;12.60;;;8.07;;
56519;SDS011;42420;53.586;10.052;2022-12-07T23:47:07;15.30;;;8.27;;
56519;SDS011;42420;53.586;10.052;2022-12-07T23:57:11;15.73;;;8.65;;
